Foxhome, Minnesota
Current Conditions -  °F | °C
As of 10:34 PM on Thursday 18 Dec 2014 (Local Time) from KFFM Reporting Station
Overcast Overcast  
Wind Chill:   Ceiling: 2300
Heat Index: 19°   Visibility: 10mi
Dew Point: 14°   Wind: 10mph
Humidity: 80%   Direction: 150°SSE
Pressure: 30.21"   Gusts: NA
Location:  46.28°N, 96.31°W
Report Text: KFFM 190434Z AUTO 15009KT 10SM OVC023 M07/M10 A3021 RMK AO2
Loading
Personal Weather Stations






























Interactive Weather Map New forecast layout! Learn more

10-Day Weather Forecast

Advertisements
Track Severe Weather on mobile